sensor_id;sensor_type;location;lat;lon;timestamp;temperature;humidity
67379;DHT22;54262;44.642;-0.974;2023-06-22T00:02:00;19.20;99.90
67379;DHT22;54262;44.642;-0.974;2023-06-22T00:04:25;18.60;99.90
67379;DHT22;54262;44.642;-0.974;2023-06-22T00:06:51;18.60;99.90
67379;DHT22;54262;44.642;-0.974;2023-06-22T00:09:17;18.30;99.90
67379;DHT22;54262;44.642;-0.974;2023-06-22T00:11:42;18.30;99.90
67379;DHT22;54262;44.642;-0.974;2023-06-22T00:14:08;18.10;99.90
67379;DHT22;54262;44.642;-0.974;2023-06-22T00:16:33;18.30;99.90
67379;DHT22;54262;44.642;-0.974;2023-06-22T00:19:00;17.90;99.90
67379;DHT22;54262;44.642;-0.974;2023-06-22T00:21:29;17.90;99.90
67379;DHT22;54262;44.642;-0.974;2023-06-22T00:23:54;18.40;99.90
67379;DHT22;54262;44.642;-0.974;2023-06-22T00:26:21;18.00;99.90
67379;DHT22;54262;44.642;-0.974;2023-06-22T00:28:47;18.40;99.90
67379;DHT22;54262;44.642;-0.974;2023-06-22T00:31:13;19.00;99.90
67379;DHT22;54262;44.642;-0.974;2023-06-22T00:33:38;19.10;99.90
67379;DHT22;54262;44.642;-0.974;2023-06-22T00:36:05;18.30;99.90
67379;DHT22;54262;44.642;-0.974;2023-06-22T00:38:31;17.80;99.90
67379;DHT22;54262;44.642;-0.974;2023-06-22T00:40:57;17.70;99.90
67379;DHT22;54262;44.642;-0.974;2023-06-22T00:43:22;18.20;99.90
67379;DHT22;54262;44.642;-0.974;2023-06-22T00:45:51;18.20;99.90
67379;DHT22;54262;44.642;-0.974;2023-06-22T00:48:18;18.10;99.90
67379;DHT22;54262;44.642;-0.974;2023-06-22T00:50:44;19.20;99.90
67379;DHT22;54262;44.642;-0.974;2023-06-22T00:53:10;19.40;99.90
67379;DHT22;54262;44.642;-0.974;2023-06-22T00:55:43;19.00;99.90
67379;DHT22;54262;44.642;-0.974;2023-06-22T00:58:11;19.20;99.90
67379;DHT22;54262;44.642;-0.974;2023-06-22T01:00:38;18.60;99.90
67379;DHT22;54262;44.642;-0.974;2023-06-22T01:03:07;18.20;99.90
67379;DHT22;54262;44.642;-0.974;2023-06-22T01:05:37;18.10;99.90
67379;DHT22;54262;44.642;-0.974;2023-06-22T01:08:24;18.30;99.90
67379;DHT22;54262;44.642;-0.974;2023-06-22T01:11:16;18.80;99.90
67379;DHT22;54262;44.642;-0.974;2023-06-22T01:13:56;19.10;99.90
67379;DHT22;54262;44.642;-0.974;2023-06-22T01:16:34;19.60;99.90
67379;DHT22;54262;44.642;-0.974;2023-06-22T01:19:38;19.10;99.90
67379;DHT22;54262;44.642;-0.974;2023-06-22T01:22:07;19.30;99.90
67379;DHT22;54262;44.642;-0.974;2023-06-22T01:25:13;19.30;99.90
67379;DHT22;54262;44.642;-0.974;2023-06-22T01:27:56;19.20;99.90
67379;DHT22;54262;44.642;-0.974;2023-06-22T01:30:27;18.50;99.90
67379;DHT22;54262;44.642;-0.974;2023-06-22T01:32:58;18.10;99.90
67379;DHT22;54262;44.642;-0.974;2023-06-22T01:35:24;18.10;99.90
67379;DHT22;54262;44.642;-0.974;2023-06-22T01:37:50;18.10;99.90
67379;DHT22;54262;44.642;-0.974;2023-06-22T01:40:16;18.10;99.90
67379;DHT22;54262;44.642;-0.974;2023-06-22T01:42:43;18.00;99.90
67379;DHT22;54262;44.642;-0.974;2023-06-22T01:45:10;17.90;99.90
67379;DHT22;54262;44.642;-0.974;2023-06-22T01:47:39;17.90;99.90
67379;DHT22;54262;44.642;-0.974;2023-06-22T01:50:07;17.90;99.90
67379;DHT22;54262;44.642;-0.974;2023-06-22T01:52:37;18.00;99.90
67379;DHT22;54262;44.642;-0.974;2023-06-22T01:55:03;18.00;99.90
67379;DHT22;54262;44.642;-0.974;2023-06-22T01:57:30;17.80;99.90
67379;DHT22;54262;44.642;-0.974;2023-06-22T02:00:04;17.80;99.90
67379;DHT22;54262;44.642;-0.974;2023-06-22T02:02:36;17.80;99.90
67379;DHT22;54262;44.642;-0.974;2023-06-22T02:05:07;17.90;99.90
67379;DHT22;54262;44.642;-0.974;2023-06-22T02:07:41;17.90;99.90
67379;DHT22;54262;44.642;-0.974;2023-06-22T02:10:08;18.10;99.90
67379;DHT22;54262;44.642;-0.974;2023-06-22T02:12:38;18.20;99.90
67379;DHT22;54262;44.642;-0.974;2023-06-22T02:15:04;18.20;99.90
67379;DHT22;54262;44.642;-0.974;2023-06-22T02:17:30;18.40;99.90
67379;DHT22;54262;44.642;-0.974;2023-06-22T02:19:58;18.40;99.90
67379;DHT22;54262;44.642;-0.974;2023-06-22T02:22:24;18.70;99.90
67379;DHT22;54262;44.642;-0.974;2023-06-22T02:24:50;18.40;99.90
67379;DHT22;54262;44.642;-0.974;2023-06-22T02:27:15;18.20;99.90
67379;DHT22;54262;44.642;-0.974;2023-06-22T02:29:41;18.10;99.90
67379;DHT22;54262;44.642;-0.974;2023-06-22T02:32:07;18.10;99.90
67379;DHT22;54262;44.642;-0.974;2023-06-22T02:34:33;18.30;99.90
67379;DHT22;54262;44.642;-0.974;2023-06-22T02:36:59;19.00;99.90
67379;DHT22;54262;44.642;-0.974;2023-06-22T02:39:25;19.20;99.90
67379;DHT22;54262;44.642;-0.974;2023-06-22T02:41:53;19.70;99.90
67379;DHT22;54262;44.642;-0.974;2023-06-22T02:44:19;19.60;99.90
67379;DHT22;54262;44.642;-0.974;2023-06-22T02:46:46;19.60;99.90
67379;DHT22;54262;44.642;-0.974;2023-06-22T02:49:14;19.70;99.90
67379;DHT22;54262;44.642;-0.974;2023-06-22T02:51:45;19.60;99.90
67379;DHT22;54262;44.642;-0.974;2023-06-22T02:54:11;19.80;99.90
67379;DHT22;54262;44.642;-0.974;2023-06-22T02:56:37;19.80;99.90
67379;DHT22;54262;44.642;-0.974;2023-06-22T02:59:03;19.50;99.90
67379;DHT22;54262;44.642;-0.974;2023-06-22T03:01:29;18.90;99.90
67379;DHT22;54262;44.642;-0.974;2023-06-22T03:03:56;18.60;99.90
67379;DHT22;54262;44.642;-0.974;2023-06-22T03:06:22;18.40;99.90
67379;DHT22;54262;44.642;-0.974;2023-06-22T03:08:50;18.60;99.90
67379;DHT22;54262;44.642;-0.974;2023-06-22T03:11:16;18.80;99.90
67379;DHT22;54262;44.642;-0.974;2023-06-22T03:13:41;18.70;99.90
67379;DHT22;54262;44.642;-0.974;2023-06-22T03:16:07;18.50;99.90
67379;DHT22;54262;44.642;-0.974;2023-06-22T03:18:33;18.40;99.90
67379;DHT22;54262;44.642;-0.974;2023-06-22T03:20:58;18.50;99.90
67379;DHT22;54262;44.642;-0.974;2023-06-22T03:23:24;18.60;99.90
67379;DHT22;54262;44.642;-0.974;2023-06-22T03:25:50;18.40;99.90
67379;DHT22;54262;44.642;-0.974;2023-06-22T03:28:15;18.30;99.90
67379;DHT22;54262;44.642;-0.974;2023-06-22T03:30:41;18.20;99.90
67379;DHT22;54262;44.642;-0.974;2023-06-22T03:33:07;18.40;99.90
67379;DHT22;54262;44.642;-0.974;2023-06-22T03:35:32;18.40;99.90
67379;DHT22;54262;44.642;-0.974;2023-06-22T03:37:58;18.50;99.90
67379;DHT22;54262;44.642;-0.974;2023-06-22T03:40:24;18.30;99.90
67379;DHT22;54262;44.642;-0.974;2023-06-22T03:42:49;18.80;99.90
67379;DHT22;54262;44.642;-0.974;2023-06-22T03:45:15;18.50;99.90
67379;DHT22;54262;44.642;-0.974;2023-06-22T03:47:41;18.80;99.90
67379;DHT22;54262;44.642;-0.974;2023-06-22T03:50:09;18.50;99.90
67379;DHT22;54262;44.642;-0.974;2023-06-22T03:52:37;18.30;99.90
67379;DHT22;54262;44.642;-0.974;2023-06-22T03:55:03;18.30;99.90
67379;DHT22;54262;44.642;-0.974;2023-06-22T03:57:29;18.40;99.90
67379;DHT22;54262;44.642;-0.974;2023-06-22T03:59:56;18.50;99.90
67379;DHT22;54262;44.642;-0.974;2023-06-22T04:02:22;18.80;99.90
67379;DHT22;54262;44.642;-0.974;2023-06-22T04:04:47;18.60;99.90
67379;DHT22;54262;44.642;-0.974;2023-06-22T04:07:13;18.80;99.90
67379;DHT22;54262;44.642;-0.974;2023-06-22T04:09:39;18.60;99.90
67379;DHT22;54262;44.642;-0.974;2023-06-22T04:12:05;18.50;99.90
67379;DHT22;54262;44.642;-0.974;2023-06-22T04:14:31;19.00;99.90
67379;DHT22;54262;44.642;-0.974;2023-06-22T04:16:57;19.10;99.90
67379;DHT22;54262;44.642;-0.974;2023-06-22T04:19:23;19.00;99.90
67379;DHT22;54262;44.642;-0.974;2023-06-22T04:21:49;18.90;99.90
67379;DHT22;54262;44.642;-0.974;2023-06-22T04:24:14;18.80;99.90
67379;DHT22;54262;44.642;-0.974;2023-06-22T04:26:40;18.80;99.90
67379;DHT22;54262;44.642;-0.974;2023-06-22T04:29:10;18.80;99.90
67379;DHT22;54262;44.642;-0.974;2023-06-22T04:31:35;19.10;99.90
67379;DHT22;54262;44.642;-0.974;2023-06-22T04:34:03;19.50;99.90
67379;DHT22;54262;44.642;-0.974;2023-06-22T04:36:40;19.50;99.90
67379;DHT22;54262;44.642;-0.974;2023-06-22T04:39:15;19.60;99.90
67379;DHT22;54262;44.642;-0.974;2023-06-22T04:41:40;19.50;99.90
67379;DHT22;54262;44.642;-0.974;2023-06-22T04:44:10;19.70;99.90
67379;DHT22;54262;44.642;-0.974;2023-06-22T04:46:37;19.50;99.90
67379;DHT22;54262;44.642;-0.974;2023-06-22T04:49:09;19.50;99.90
67379;DHT22;54262;44.642;-0.974;2023-06-22T04:51:42;19.60;99.90
67379;DHT22;54262;44.642;-0.974;2023-06-22T04:54:10;19.70;99.90
67379;DHT22;54262;44.642;-0.974;2023-06-22T04:56:36;19.70;99.90
67379;DHT22;54262;44.642;-0.974;2023-06-22T04:59:03;19.80;99.90
67379;DHT22;54262;44.642;-0.974;2023-06-22T05:01:37;19.70;99.90
67379;DHT22;54262;44.642;-0.974;2023-06-22T05:04:03;19.70;99.90
67379;DHT22;54262;44.642;-0.974;2023-06-22T05:06:30;19.80;99.90
67379;DHT22;54262;44.642;-0.974;2023-06-22T05:08:57;19.70;99.90
67379;DHT22;54262;44.642;-0.974;2023-06-22T05:11:27;19.60;99.90
67379;DHT22;54262;44.642;-0.974;2023-06-22T05:13:53;19.30;99.90
67379;DHT22;54262;44.642;-0.974;2023-06-22T05:16:19;19.10;99.90
67379;DHT22;54262;44.642;-0.974;2023-06-22T05:18:53;19.00;99.90
67379;DHT22;54262;44.642;-0.974;2023-06-22T05:21:28;19.10;99.90
67379;DHT22;54262;44.642;-0.974;2023-06-22T05:23:54;19.40;99.90
67379;DHT22;54262;44.642;-0.974;2023-06-22T05:26:21;19.70;99.90
67379;DHT22;54262;44.642;-0.974;2023-06-22T05:28:47;19.90;99.90
67379;DHT22;54262;44.642;-0.974;2023-06-22T05:31:14;19.90;99.90
67379;DHT22;54262;44.642;-0.974;2023-06-22T05:33:40;20.00;99.90
67379;DHT22;54262;44.642;-0.974;2023-06-22T05:36:06;20.00;99.90
67379;DHT22;54262;44.642;-0.974;2023-06-22T05:38:32;20.10;99.90
67379;DHT22;54262;44.642;-0.974;2023-06-22T05:40:58;20.00;99.90
67379;DHT22;54262;44.642;-0.974;2023-06-22T05:43:23;20.00;99.90
67379;DHT22;54262;44.642;-0.974;2023-06-22T05:45:50;20.10;99.90
67379;DHT22;54262;44.642;-0.974;2023-06-22T05:48:16;19.90;99.90
67379;DHT22;54262;44.642;-0.974;2023-06-22T05:50:42;20.00;99.90
67379;DHT22;54262;44.642;-0.974;2023-06-22T05:53:10;19.90;99.90
67379;DHT22;54262;44.642;-0.974;2023-06-22T05:55:39;19.80;99.90
67379;DHT22;54262;44.642;-0.974;2023-06-22T05:58:05;19.80;99.90
67379;DHT22;54262;44.642;-0.974;2023-06-22T06:00:30;20.00;99.90
67379;DHT22;54262;44.642;-0.974;2023-06-22T06:02:56;20.00;99.90
67379;DHT22;54262;44.642;-0.974;2023-06-22T06:05:22;19.90;99.90
67379;DHT22;54262;44.642;-0.974;2023-06-22T06:07:49;20.20;99.90
67379;DHT22;54262;44.642;-0.974;2023-06-22T06:10:15;20.20;99.90
67379;DHT22;54262;44.642;-0.974;2023-06-22T06:12:40;20.20;99.90
67379;DHT22;54262;44.642;-0.974;2023-06-22T06:15:06;20.30;99.90
67379;DHT22;54262;44.642;-0.974;2023-06-22T06:17:32;20.10;99.90
67379;DHT22;54262;44.642;-0.974;2023-06-22T06:20:00;20.10;99.90
67379;DHT22;54262;44.642;-0.974;2023-06-22T06:22:26;20.20;99.90
67379;DHT22;54262;44.642;-0.974;2023-06-22T06:24:52;20.20;99.90
67379;DHT22;54262;44.642;-0.974;2023-06-22T06:27:17;20.20;99.90
67379;DHT22;54262;44.642;-0.974;2023-06-22T06:29:45;20.30;99.90
67379;DHT22;54262;44.642;-0.974;2023-06-22T06:32:14;20.30;99.90
67379;DHT22;54262;44.642;-0.974;2023-06-22T06:34:39;20.40;99.90
67379;DHT22;54262;44.642;-0.974;2023-06-22T06:37:06;20.40;99.90
67379;DHT22;54262;44.642;-0.974;2023-06-22T06:39:31;20.40;99.90
67379;DHT22;54262;44.642;-0.974;2023-06-22T06:41:57;20.30;99.90
67379;DHT22;54262;44.642;-0.974;2023-06-22T06:44:23;20.30;99.90
67379;DHT22;54262;44.642;-0.974;2023-06-22T06:46:48;20.30;99.90
67379;DHT22;54262;44.642;-0.974;2023-06-22T06:49:14;20.20;99.90
67379;DHT22;54262;44.642;-0.974;2023-06-22T06:51:40;20.20;99.90
67379;DHT22;54262;44.642;-0.974;2023-06-22T06:54:08;20.40;99.90
67379;DHT22;54262;44.642;-0.974;2023-06-22T06:56:35;20.30;99.90
67379;DHT22;54262;44.642;-0.974;2023-06-22T06:59:01;20.40;99.90
67379;DHT22;54262;44.642;-0.974;2023-06-22T07:01:27;20.50;99.90
67379;DHT22;54262;44.642;-0.974;2023-06-22T07:03:53;20.60;99.90
67379;DHT22;54262;44.642;-0.974;2023-06-22T07:06:19;20.50;99.90
67379;DHT22;54262;44.642;-0.974;2023-06-22T07:08:44;20.60;99.90
67379;DHT22;54262;44.642;-0.974;2023-06-22T07:11:10;20.60;99.90
67379;DHT22;54262;44.642;-0.974;2023-06-22T07:13:36;20.70;99.90
67379;DHT22;54262;44.642;-0.974;2023-06-22T07:16:02;20.60;99.90
67379;DHT22;54262;44.642;-0.974;2023-06-22T07:18:27;20.50;99.90
67379;DHT22;54262;44.642;-0.974;2023-06-22T07:20:53;20.60;99.90
67379;DHT22;54262;44.642;-0.974;2023-06-22T07:23:19;20.80;99.90
67379;DHT22;54262;44.642;-0.974;2023-06-22T07:25:45;21.10;99.90
67379;DHT22;54262;44.642;-0.974;2023-06-22T07:28:10;21.20;99.90
67379;DHT22;54262;44.642;-0.974;2023-06-22T07:30:36;21.30;99.90
67379;DHT22;54262;44.642;-0.974;2023-06-22T07:33:05;21.50;99.90
67379;DHT22;54262;44.642;-0.974;2023-06-22T07:35:33;21.60;99.90
67379;DHT22;54262;44.642;-0.974;2023-06-22T07:37:59;21.70;99.90
67379;DHT22;54262;44.642;-0.974;2023-06-22T07:40:25;22.20;99.90
67379;DHT22;54262;44.642;-0.974;2023-06-22T07:42:51;22.40;99.90
67379;DHT22;54262;44.642;-0.974;2023-06-22T07:45:18;22.60;99.90
67379;DHT22;54262;44.642;-0.974;2023-06-22T07:47:44;22.80;99.90
67379;DHT22;54262;44.642;-0.974;2023-06-22T07:50:10;22.60;99.90
67379;DHT22;54262;44.642;-0.974;2023-06-22T07:52:35;22.30;99.90
67379;DHT22;54262;44.642;-0.974;2023-06-22T07:55:04;22.70;99.90
67379;DHT22;54262;44.642;-0.974;2023-06-22T07:57:32;22.70;99.90
67379;DHT22;54262;44.642;-0.974;2023-06-22T08:00:00;22.40;99.90
67379;DHT22;54262;44.642;-0.974;2023-06-22T08:02:26;22.40;99.90
67379;DHT22;54262;44.642;-0.974;2023-06-22T08:04:52;22.40;99.90
67379;DHT22;54262;44.642;-0.974;2023-06-22T08:07:18;22.20;99.90
67379;DHT22;54262;44.642;-0.974;2023-06-22T08:09:48;22.10;99.90
67379;DHT22;54262;44.642;-0.974;2023-06-22T08:12:14;22.40;99.90
67379;DHT22;54262;44.642;-0.974;2023-06-22T08:14:42;22.50;99.90
67379;DHT22;54262;44.642;-0.974;2023-06-22T08:17:08;22.10;99.90
67379;DHT22;54262;44.642;-0.974;2023-06-22T08:19:34;22.10;99.90
67379;DHT22;54262;44.642;-0.974;2023-06-22T08:22:00;22.10;99.90
67379;DHT22;54262;44.642;-0.974;2023-06-22T08:24:26;22.50;99.90
67379;DHT22;54262;44.642;-0.974;2023-06-22T08:26:56;22.70;99.90
67379;DHT22;54262;44.642;-0.974;2023-06-22T08:29:21;22.80;99.90
67379;DHT22;54262;44.642;-0.974;2023-06-22T08:31:47;22.80;99.90
67379;DHT22;54262;44.642;-0.974;2023-06-22T08:34:13;23.00;99.90
67379;DHT22;54262;44.642;-0.974;2023-06-22T08:36:38;22.40;99.90
67379;DHT22;54262;44.642;-0.974;2023-06-22T08:39:07;22.40;99.90
67379;DHT22;54262;44.642;-0.974;2023-06-22T08:41:33;22.40;99.90
67379;DHT22;54262;44.642;-0.974;2023-06-22T08:43:59;22.50;99.90
67379;DHT22;54262;44.642;-0.974;2023-06-22T08:46:25;22.50;99.90
67379;DHT22;54262;44.642;-0.974;2023-06-22T08:48:56;22.50;99.90
67379;DHT22;54262;44.642;-0.974;2023-06-22T08:51:23;22.50;99.90
67379;DHT22;54262;44.642;-0.974;2023-06-22T08:53:49;22.50;99.90
67379;DHT22;54262;44.642;-0.974;2023-06-22T08:56:17;22.60;99.90
67379;DHT22;54262;44.642;-0.974;2023-06-22T08:58:45;22.50;99.90
67379;DHT22;54262;44.642;-0.974;2023-06-22T09:01:10;22.40;99.90
67379;DHT22;54262;44.642;-0.974;2023-06-22T09:03:36;22.30;99.90
67379;DHT22;54262;44.642;-0.974;2023-06-22T09:06:03;22.50;99.90
67379;DHT22;54262;44.642;-0.974;2023-06-22T09:08:28;22.60;99.90
67379;DHT22;54262;44.642;-0.974;2023-06-22T09:10:54;22.50;99.90
67379;DHT22;54262;44.642;-0.974;2023-06-22T09:13:20;22.80;99.90
67379;DHT22;54262;44.642;-0.974;2023-06-22T09:15:46;22.60;99.90
67379;DHT22;54262;44.642;-0.974;2023-06-22T09:18:12;22.60;99.90
67379;DHT22;54262;44.642;-0.974;2023-06-22T09:20:38;22.60;99.90
67379;DHT22;54262;44.642;-0.974;2023-06-22T09:23:04;22.80;99.90
67379;DHT22;54262;44.642;-0.974;2023-06-22T09:25:30;22.70;99.90
67379;DHT22;54262;44.642;-0.974;2023-06-22T09:27:55;22.90;99.90
67379;DHT22;54262;44.642;-0.974;2023-06-22T09:30:21;22.80;99.90
67379;DHT22;54262;44.642;-0.974;2023-06-22T09:32:47;22.80;99.90
67379;DHT22;54262;44.642;-0.974;2023-06-22T09:35:13;22.80;99.90
67379;DHT22;54262;44.642;-0.974;2023-06-22T09:37:40;22.80;99.90
67379;DHT22;54262;44.642;-0.974;2023-06-22T09:40:07;22.80;99.90
67379;DHT22;54262;44.642;-0.974;2023-06-22T09:42:36;22.80;99.90
67379;DHT22;54262;44.642;-0.974;2023-06-22T09:45:02;22.80;99.90
67379;DHT22;54262;44.642;-0.974;2023-06-22T09:47:29;22.80;99.90
67379;DHT22;54262;44.642;-0.974;2023-06-22T09:49:55;22.90;99.90
67379;DHT22;54262;44.642;-0.974;2023-06-22T09:52:21;22.90;99.90
67379;DHT22;54262;44.642;-0.974;2023-06-22T09:54:47;23.00;99.90
67379;DHT22;54262;44.642;-0.974;2023-06-22T09:57:15;23.00;99.90
67379;DHT22;54262;44.642;-0.974;2023-06-22T09:59:43;23.00;99.90
67379;DHT22;54262;44.642;-0.974;2023-06-22T10:02:08;23.00;99.90
67379;DHT22;54262;44.642;-0.974;2023-06-22T10:04:35;22.90;99.90
67379;DHT22;54262;44.642;-0.974;2023-06-22T10:07:01;23.00;99.90
67379;DHT22;54262;44.642;-0.974;2023-06-22T10:09:27;23.10;99.90
67379;DHT22;54262;44.642;-0.974;2023-06-22T10:11:53;23.20;99.90
67379;DHT22;54262;44.642;-0.974;2023-06-22T10:14:19;23.00;99.90
67379;DHT22;54262;44.642;-0.974;2023-06-22T10:16:44;23.00;99.90
67379;DHT22;54262;44.642;-0.974;2023-06-22T10:19:10;23.40;99.90
67379;DHT22;54262;44.642;-0.974;2023-06-22T10:21:36;23.40;99.90
67379;DHT22;54262;44.642;-0.974;2023-06-22T10:24:02;23.20;99.90
67379;DHT22;54262;44.642;-0.974;2023-06-22T10:26:34;23.20;99.90
67379;DHT22;54262;44.642;-0.974;2023-06-22T10:29:01;23.10;99.90
67379;DHT22;54262;44.642;-0.974;2023-06-22T10:31:27;23.40;99.90
67379;DHT22;54262;44.642;-0.974;2023-06-22T10:33:54;23.40;99.90
67379;DHT22;54262;44.642;-0.974;2023-06-22T10:36:20;23.30;99.90
67379;DHT22;54262;44.642;-0.974;2023-06-22T10:38:46;23.30;99.90
67379;DHT22;54262;44.642;-0.974;2023-06-22T10:41:13;23.10;99.90
67379;DHT22;54262;44.642;-0.974;2023-06-22T10:43:39;23.30;99.90
67379;DHT22;54262;44.642;-0.974;2023-06-22T10:46:04;23.40;99.90
67379;DHT22;54262;44.642;-0.974;2023-06-22T10:48:30;23.40;99.90
67379;DHT22;54262;44.642;-0.974;2023-06-22T10:50:56;23.20;99.90
67379;DHT22;54262;44.642;-0.974;2023-06-22T10:53:24;23.40;99.90
67379;DHT22;54262;44.642;-0.974;2023-06-22T10:55:50;23.70;99.90
67379;DHT22;54262;44.642;-0.974;2023-06-22T10:58:19;23.70;99.90
67379;DHT22;54262;44.642;-0.974;2023-06-22T11:00:47;23.60;99.90
67379;DHT22;54262;44.642;-0.974;2023-06-22T11:03:12;23.70;99.90
67379;DHT22;54262;44.642;-0.974;2023-06-22T11:05:39;23.90;99.90
67379;DHT22;54262;44.642;-0.974;2023-06-22T11:08:05;23.70;99.90
67379;DHT22;54262;44.642;-0.974;2023-06-22T11:10:31;23.70;99.90
67379;DHT22;54262;44.642;-0.974;2023-06-22T11:12:56;23.90;99.90
67379;DHT22;54262;44.642;-0.974;2023-06-22T11:15:24;24.10;99.90
67379;DHT22;54262;44.642;-0.974;2023-06-22T11:17:50;23.90;99.90
67379;DHT22;54262;44.642;-0.974;2023-06-22T11:20:18;23.90;99.90
67379;DHT22;54262;44.642;-0.974;2023-06-22T11:22:45;23.80;99.90
67379;DHT22;54262;44.642;-0.974;2023-06-22T11:25:10;23.90;99.90
67379;DHT22;54262;44.642;-0.974;2023-06-22T11:27:39;24.00;99.90
67379;DHT22;54262;44.642;-0.974;2023-06-22T11:30:05;24.10;99.90
67379;DHT22;54262;44.642;-0.974;2023-06-22T11:32:31;24.00;99.90
67379;DHT22;54262;44.642;-0.974;2023-06-22T11:34:57;24.10;99.90
67379;DHT22;54262;44.642;-0.974;2023-06-22T11:37:22;24.00;99.90
67379;DHT22;54262;44.642;-0.974;2023-06-22T11:39:48;24.20;99.90
67379;DHT22;54262;44.642;-0.974;2023-06-22T11:42:14;24.30;99.90
67379;DHT22;54262;44.642;-0.974;2023-06-22T11:44:39;24.40;99.90
67379;DHT22;54262;44.642;-0.974;2023-06-22T11:47:05;24.30;99.90
67379;DHT22;54262;44.642;-0.974;2023-06-22T11:49:31;24.30;99.90
67379;DHT22;54262;44.642;-0.974;2023-06-22T11:51:57;24.40;99.90
67379;DHT22;54262;44.642;-0.974;2023-06-22T11:54:22;24.70;99.90
67379;DHT22;54262;44.642;-0.974;2023-06-22T11:56:48;24.50;99.90
67379;DHT22;54262;44.642;-0.974;2023-06-22T11:59:16;24.50;99.90
67379;DHT22;54262;44.642;-0.974;2023-06-22T12:01:44;24.40;99.90
67379;DHT22;54262;44.642;-0.974;2023-06-22T12:04:09;24.60;99.90
67379;DHT22;54262;44.642;-0.974;2023-06-22T12:06:38;24.50;99.90
67379;DHT22;54262;44.642;-0.974;2023-06-22T12:09:06;24.50;99.90
67379;DHT22;54262;44.642;-0.974;2023-06-22T12:11:32;24.50;99.90
67379;DHT22;54262;44.642;-0.974;2023-06-22T12:13:58;24.70;99.90
67379;DHT22;54262;44.642;-0.974;2023-06-22T12:16:30;24.90;99.90
67379;DHT22;54262;44.642;-0.974;2023-06-22T12:18:56;24.80;99.90
67379;DHT22;54262;44.642;-0.974;2023-06-22T12:21:21;24.80;99.90
67379;DHT22;54262;44.642;-0.974;2023-06-22T12:23:47;25.00;99.90
67379;DHT22;54262;44.642;-0.974;2023-06-22T12:26:13;24.80;99.90
67379;DHT22;54262;44.642;-0.974;2023-06-22T12:28:38;24.80;99.90
67379;DHT22;54262;44.642;-0.974;2023-06-22T12:31:04;24.80;99.90
67379;DHT22;54262;44.642;-0.974;2023-06-22T12:33:30;24.80;99.90
67379;DHT22;54262;44.642;-0.974;2023-06-22T12:35:56;24.90;99.90
67379;DHT22;54262;44.642;-0.974;2023-06-22T12:38:22;25.00;99.90
67379;DHT22;54262;44.642;-0.974;2023-06-22T12:40:49;25.00;99.90
67379;DHT22;54262;44.642;-0.974;2023-06-22T12:43:15;25.10;99.90
67379;DHT22;54262;44.642;-0.974;2023-06-22T12:45:40;25.10;99.90
67379;DHT22;54262;44.642;-0.974;2023-06-22T12:48:06;25.20;99.90
67379;DHT22;54262;44.642;-0.974;2023-06-22T12:50:32;25.20;99.90
67379;DHT22;54262;44.642;-0.974;2023-06-22T12:52:57;25.20;99.90
67379;DHT22;54262;44.642;-0.974;2023-06-22T12:55:23;25.30;99.90
67379;DHT22;54262;44.642;-0.974;2023-06-22T12:57:49;25.10;99.90
67379;DHT22;54262;44.642;-0.974;2023-06-22T13:00:17;25.30;99.90
67379;DHT22;54262;44.642;-0.974;2023-06-22T13:02:45;25.30;99.90
67379;DHT22;54262;44.642;-0.974;2023-06-22T13:05:10;25.50;99.90
67379;DHT22;54262;44.642;-0.974;2023-06-22T13:07:36;25.40;99.90
67379;DHT22;54262;44.642;-0.974;2023-06-22T13:10:02;25.40;99.90
67379;DHT22;54262;44.642;-0.974;2023-06-22T13:12:28;25.20;99.90
67379;DHT22;54262;44.642;-0.974;2023-06-22T13:14:54;25.30;99.90
67379;DHT22;54262;44.642;-0.974;2023-06-22T13:17:20;25.40;99.90
67379;DHT22;54262;44.642;-0.974;2023-06-22T13:19:46;25.50;99.90
67379;DHT22;54262;44.642;-0.974;2023-06-22T13:22:31;25.50;99.90
67379;DHT22;54262;44.642;-0.974;2023-06-22T13:24:58;25.50;99.90
67379;DHT22;54262;44.642;-0.974;2023-06-22T13:27:24;25.40;99.90
67379;DHT22;54262;44.642;-0.974;2023-06-22T13:29:50;25.40;99.90
67379;DHT22;54262;44.642;-0.974;2023-06-22T13:32:18;25.50;99.90
67379;DHT22;54262;44.642;-0.974;2023-06-22T13:34:43;25.60;99.90
67379;DHT22;54262;44.642;-0.974;2023-06-22T13:37:09;25.60;99.90
67379;DHT22;54262;44.642;-0.974;2023-06-22T13:39:35;25.60;99.90
67379;DHT22;54262;44.642;-0.974;2023-06-22T13:42:00;25.60;99.90
67379;DHT22;54262;44.642;-0.974;2023-06-22T13:44:26;25.70;99.90
67379;DHT22;54262;44.642;-0.974;2023-06-22T13:46:54;25.70;99.90
67379;DHT22;54262;44.642;-0.974;2023-06-22T13:49:20;25.80;99.90
67379;DHT22;54262;44.642;-0.974;2023-06-22T13:51:47;25.80;99.90
67379;DHT22;54262;44.642;-0.974;2023-06-22T13:54:14;25.40;99.90
67379;DHT22;54262;44.642;-0.974;2023-06-22T13:56:39;25.80;99.90
67379;DHT22;54262;44.642;-0.974;2023-06-22T13:59:05;25.80;99.90
67379;DHT22;54262;44.642;-0.974;2023-06-22T14:01:34;25.70;99.90
67379;DHT22;54262;44.642;-0.974;2023-06-22T14:04:02;25.80;99.90
67379;DHT22;54262;44.642;-0.974;2023-06-22T14:06:28;25.80;99.90
67379;DHT22;54262;44.642;-0.974;2023-06-22T14:08:53;25.80;99.90
67379;DHT22;54262;44.642;-0.974;2023-06-22T14:11:19;25.80;99.90
67379;DHT22;54262;44.642;-0.974;2023-06-22T14:13:44;25.70;99.90
67379;DHT22;54262;44.642;-0.974;2023-06-22T14:16:10;25.90;99.90
67379;DHT22;54262;44.642;-0.974;2023-06-22T14:18:36;25.90;99.90
67379;DHT22;54262;44.642;-0.974;2023-06-22T14:21:02;25.90;99.90
67379;DHT22;54262;44.642;-0.974;2023-06-22T14:23:27;26.00;99.90
67379;DHT22;54262;44.642;-0.974;2023-06-22T14:25:53;26.00;99.90
67379;DHT22;54262;44.642;-0.974;2023-06-22T14:28:19;25.90;99.90
67379;DHT22;54262;44.642;-0.974;2023-06-22T14:30:45;26.10;99.90
67379;DHT22;54262;44.642;-0.974;2023-06-22T14:33:11;26.20;99.90
67379;DHT22;54262;44.642;-0.974;2023-06-22T14:35:37;26.10;99.90
67379;DHT22;54262;44.642;-0.974;2023-06-22T14:38:06;26.00;99.90
67379;DHT22;54262;44.642;-0.974;2023-06-22T14:40:32;26.10;99.90
67379;DHT22;54262;44.642;-0.974;2023-06-22T14:42:57;26.20;99.90
67379;DHT22;54262;44.642;-0.974;2023-06-22T14:45:23;26.20;99.90
67379;DHT22;54262;44.642;-0.974;2023-06-22T14:47:49;26.30;99.90
67379;DHT22;54262;44.642;-0.974;2023-06-22T14:50:15;26.20;99.90
67379;DHT22;54262;44.642;-0.974;2023-06-22T14:52:41;26.30;99.90
67379;DHT22;54262;44.642;-0.974;2023-06-22T14:55:07;26.40;99.90
67379;DHT22;54262;44.642;-0.974;2023-06-22T14:57:33;26.40;99.90
67379;DHT22;54262;44.642;-0.974;2023-06-22T14:59:58;26.40;99.90
67379;DHT22;54262;44.642;-0.974;2023-06-22T15:02:27;26.20;99.90
67379;DHT22;54262;44.642;-0.974;2023-06-22T15:04:55;26.40;99.90
67379;DHT22;54262;44.642;-0.974;2023-06-22T15:07:21;26.30;99.90
67379;DHT22;54262;44.642;-0.974;2023-06-22T15:09:46;26.50;99.90
67379;DHT22;54262;44.642;-0.974;2023-06-22T15:12:12;26.20;99.90
67379;DHT22;54262;44.642;-0.974;2023-06-22T15:14:41;26.30;99.90